createdAt,value
2018-12-30T00:00:27.941Z,59.67
2018-12-30T00:02:56.226Z,56.60
2018-12-30T00:05:29.141Z,57.13
2018-12-30T00:08:00.730Z,55.93
2018-12-30T00:10:29.090Z,53.93
2018-12-30T00:12:57.372Z,57.57
2018-12-30T00:15:28.999Z,49.17
2018-12-30T00:17:57.313Z,50.40
2018-12-30T00:20:25.676Z,54.40
2018-12-30T00:22:54.003Z,50.23
2018-12-30T00:25:22.395Z,50.60
2018-12-30T00:27:50.993Z,54.63
2018-12-30T00:30:19.269Z,52.33
2018-12-30T00:32:47.635Z,50.83
2018-12-30T00:35:16.026Z,48.67
2018-12-30T00:37:44.361Z,52.53
2018-12-30T00:40:12.734Z,48.77
2018-12-30T00:42:41.191Z,52.37
2018-12-30T00:45:09.568Z,51.57
2018-12-30T00:47:37.885Z,51.03
2018-12-30T00:50:06.260Z,52.93
2018-12-30T00:52:34.541Z,50.93
2018-12-30T00:55:02.833Z,48.77
2018-12-30T00:57:31.084Z,51.40
2018-12-30T00:59:59.435Z,49.53
2018-12-30T01:02:27.833Z,50.37
2018-12-30T01:04:56.104Z,52.27
2018-12-30T01:07:24.449Z,50.03
2018-12-30T01:09:52.847Z,50.63
2018-12-30T01:12:21.143Z,52.07
2018-12-30T01:14:49.503Z,52.47
2018-12-30T01:17:17.776Z,49.20
2018-12-30T01:19:46.054Z,47.97
2018-12-30T01:22:14.321Z,47.57
2018-12-30T01:24:43.102Z,47.93
2018-12-30T01:27:11.411Z,49.97
2018-12-30T01:29:41.325Z,52.07
2018-12-30T01:32:12.490Z,48.80
2018-12-30T01:34:40.860Z,47.03
2018-12-30T01:37:09.107Z,45.97
2018-12-30T01:39:37.466Z,48.30
2018-12-30T01:42:05.755Z,45.47
2018-12-30T01:44:34.041Z,43.37
2018-12-30T01:47:02.365Z,47.33
2018-12-30T01:49:30.642Z,46.50
2018-12-30T01:51:59.139Z,43.67
2018-12-30T01:54:27.481Z,44.43
2018-12-30T01:56:58.695Z,46.13
2018-12-30T01:59:27.050Z,46.37
2018-12-30T02:01:55.398Z,44.80
2018-12-30T02:04:24.046Z,45.40
2018-12-30T02:06:52.476Z,41.07
2018-12-30T02:09:20.762Z,40.17
2018-12-30T02:11:49.063Z,47.97
2018-12-30T02:14:17.315Z,42.03
2018-12-30T02:16:45.589Z,40.63
2018-12-30T02:19:13.817Z,39.60
2018-12-30T02:21:42.171Z,37.27
2018-12-30T02:24:10.452Z,38.37
2018-12-30T02:26:38.752Z,38.80
2018-12-30T02:29:07.007Z,39.10
2018-12-30T02:31:35.557Z,37.77
2018-12-30T02:34:03.964Z,42.03
2018-12-30T02:36:32.227Z,42.67
2018-12-30T02:39:00.468Z,39.30
2018-12-30T02:41:28.779Z,36.77
2018-12-30T02:43:57.442Z,37.97
2018-12-30T02:46:25.650Z,37.63
2018-12-30T02:48:53.979Z,43.00
2018-12-30T02:51:24.879Z,41.40
2018-12-30T02:53:53.240Z,38.77
2018-12-30T02:56:21.878Z,40.10
2018-12-30T02:58:50.211Z,40.70
2018-12-30T03:01:18.488Z,39.20
2018-12-30T03:03:46.783Z,42.10
2018-12-30T03:06:15.038Z,39.40
2018-12-30T03:08:43.628Z,42.97
2018-12-30T03:11:11.876Z,38.83
2018-12-30T03:13:42.961Z,38.17
2018-12-30T03:16:11.244Z,42.70
2018-12-30T03:18:39.515Z,40.80
2018-12-30T03:21:07.833Z,42.77
2018-12-30T03:23:36.113Z,39.87
2018-12-30T03:26:04.411Z,41.00
2018-12-30T03:28:32.674Z,42.77
2018-12-30T03:31:00.900Z,41.30
2018-12-30T03:33:29.142Z,39.80
2018-12-30T03:35:57.445Z,38.73
2018-12-30T03:38:25.716Z,39.27
2018-12-30T03:40:53.989Z,40.00
2018-12-30T03:43:22.281Z,39.73
2018-12-30T03:45:50.533Z,44.70
2018-12-30T03:48:18.798Z,44.10
2018-12-30T03:50:47.086Z,44.10
2018-12-30T03:53:18.399Z,44.67
2018-12-30T03:55:47.819Z,43.20
2018-12-30T03:58:16.180Z,46.13
2018-12-30T04:00:46.917Z,47.40
2018-12-30T04:03:15.206Z,43.70
2018-12-30T04:05:43.524Z,49.23
2018-12-30T04:08:11.817Z,43.10
2018-12-30T04:10:40.120Z,41.33
2018-12-30T04:13:08.434Z,46.20
2018-12-30T04:15:36.751Z,46.10
2018-12-30T04:18:05.112Z,46.77
2018-12-30T04:20:33.334Z,44.73
2018-12-30T04:23:01.652Z,45.87
2018-12-30T04:25:29.888Z,42.83
2018-12-30T04:27:58.154Z,47.73
2018-12-30T04:30:26.515Z,45.83
2018-12-30T04:32:54.764Z,48.97
2018-12-30T04:35:24.554Z,50.77
2018-12-30T04:37:52.800Z,46.80
2018-12-30T04:40:21.075Z,43.10
2018-12-30T04:42:49.425Z,47.00
2018-12-30T04:45:17.700Z,49.10
2018-12-30T04:47:45.937Z,44.97
2018-12-30T04:50:14.185Z,42.87
2018-12-30T04:52:42.447Z,43.27
2018-12-30T04:55:10.745Z,45.77
2018-12-30T04:57:38.993Z,46.27
2018-12-30T05:00:07.266Z,49.43
2018-12-30T05:02:35.532Z,40.83
2018-12-30T05:05:05.553Z,45.63
2018-12-30T05:07:33.789Z,45.37
2018-12-30T05:10:02.167Z,42.60
2018-12-30T05:12:30.459Z,42.53
2018-12-30T05:14:58.767Z,40.57
2018-12-30T05:17:27.014Z,40.80
2018-12-30T05:19:55.336Z,44.27
2018-12-30T05:22:23.679Z,41.67
2018-12-30T05:24:51.918Z,38.60
2018-12-30T05:27:20.279Z,42.87
2018-12-30T05:29:48.519Z,44.33
2018-12-30T05:32:16.782Z,39.13
2018-12-30T05:34:45.078Z,39.30
2018-12-30T05:37:13.355Z,38.10
2018-12-30T05:39:41.617Z,36.13
2018-12-30T05:42:09.996Z,39.07
2018-12-30T05:44:38.304Z,39.73
2018-12-30T05:47:08.340Z,36.33
2018-12-30T05:49:36.672Z,34.67
2018-12-30T05:52:04.986Z,35.50
2018-12-30T05:54:33.309Z,33.47
2018-12-30T05:57:01.591Z,31.33
2018-12-30T05:59:29.832Z,35.90
2018-12-30T06:01:58.101Z,34.57
2018-12-30T06:04:26.387Z,32.87
2018-12-30T06:06:54.759Z,34.30
2018-12-30T06:09:25.002Z,30.83
2018-12-30T06:11:53.275Z,29.30
2018-12-30T06:14:21.515Z,29.77
2018-12-30T06:16:49.920Z,31.67
2018-12-30T06:19:18.200Z,31.23
2018-12-30T06:21:46.491Z,31.73
2018-12-30T06:24:14.743Z,29.97
2018-12-30T06:26:42.993Z,31.70
2018-12-30T06:29:11.270Z,35.63
2018-12-30T06:31:39.620Z,28.07
2018-12-30T06:34:07.910Z,28.90
2018-12-30T06:36:36.198Z,27.80
2018-12-30T06:39:05.800Z,25.70
2018-12-30T06:41:34.048Z,29.23
2018-12-30T06:44:02.353Z,32.70
2018-12-30T06:46:30.633Z,29.77
2018-12-30T06:48:58.901Z,31.50
2018-12-30T06:51:27.150Z,25.53
2018-12-30T06:53:55.422Z,25.53
2018-12-30T06:56:23.700Z,29.73
2018-12-30T06:58:51.969Z,27.90
2018-12-30T07:01:20.233Z,33.97
2018-12-30T07:03:48.520Z,22.67
2018-12-30T07:06:16.773Z,23.03
2018-12-30T07:08:45.042Z,28.33
2018-12-30T07:11:13.299Z,25.07
2018-12-30T07:13:41.542Z,29.57
2018-12-30T07:16:09.895Z,29.60
2018-12-30T07:18:38.196Z,28.30
2018-12-30T07:21:06.484Z,24.83
2018-12-30T07:23:34.811Z,27.27
2018-12-30T07:26:22.485Z,30.93
2018-12-30T07:28:50.736Z,32.77
2018-12-30T07:31:18.984Z,29.70
2018-12-30T07:34:06.734Z,34.60
2018-12-30T07:36:35.141Z,31.57
2018-12-30T07:39:04.640Z,30.73
2018-12-30T07:41:32.939Z,31.33
2018-12-30T07:44:01.188Z,30.23
2018-12-30T07:46:29.596Z,31.47
2018-12-30T07:48:57.867Z,28.90
2018-12-30T07:51:26.139Z,30.00
2018-12-30T07:53:54.434Z,32.63
2018-12-30T07:56:22.672Z,33.30
2018-12-30T07:58:51.019Z,28.57
2018-12-30T08:01:19.400Z,29.70
2018-12-30T08:03:47.690Z,30.63
2018-12-30T08:06:15.991Z,29.47
2018-12-30T08:08:46.710Z,27.60
2018-12-30T08:11:14.994Z,24.83
2018-12-30T08:13:43.289Z,29.53
2018-12-30T08:16:11.640Z,23.97
2018-12-30T08:18:39.885Z,23.73
2018-12-30T08:21:08.264Z,26.90
2018-12-30T08:23:36.457Z,27.77
2018-12-30T08:26:04.710Z,25.97
2018-12-30T08:28:32.978Z,26.83
2018-12-30T08:31:01.226Z,28.83
2018-12-30T08:33:29.500Z,32.27
2018-12-30T08:35:57.744Z,25.47
2018-12-30T08:38:26.000Z,25.97
2018-12-30T08:40:54.252Z,25.30
2018-12-30T08:43:22.492Z,22.50
2018-12-30T08:45:50.770Z,27.07
2018-12-30T08:48:19.019Z,21.80
2018-12-30T08:50:47.280Z,24.67
2018-12-30T08:53:15.626Z,24.10
2018-12-30T08:55:43.988Z,28.70
2018-12-30T08:58:12.340Z,23.50
2018-12-30T09:00:40.594Z,26.63
2018-12-30T09:03:08.974Z,21.50
2018-12-30T09:05:37.265Z,24.13
2018-12-30T09:08:05.579Z,23.63
2018-12-30T09:10:33.816Z,24.87
2018-12-30T09:13:02.075Z,23.87
2018-12-30T09:15:30.543Z,25.70
2018-12-30T09:17:58.813Z,27.87
2018-12-30T09:20:27.131Z,24.40
2018-12-30T09:22:55.499Z,23.30
2018-12-30T09:25:23.811Z,23.57
2018-12-30T09:27:52.062Z,20.90
2018-12-30T09:30:20.418Z,20.00
2018-12-30T09:32:48.719Z,20.33
2018-12-30T09:35:16.982Z,21.63
2018-12-30T09:37:45.268Z,20.43
2018-12-30T09:40:13.533Z,22.80
2018-12-30T09:42:41.934Z,22.53
2018-12-30T09:45:10.422Z,27.47
2018-12-30T09:47:38.802Z,30.03
2018-12-30T09:50:08.907Z,26.80
2018-12-30T09:52:37.266Z,28.13
2018-12-30T09:55:07.201Z,26.20
2018-12-30T09:57:35.644Z,23.93
2018-12-30T10:00:05.739Z,23.30
2018-12-30T10:02:35.788Z,35.60
2018-12-30T10:05:04.567Z,24.83
2018-12-30T10:07:34.657Z,23.37
2018-12-30T10:10:03.170Z,24.83
2018-12-30T10:12:31.586Z,22.93
2018-12-30T10:15:09.010Z,25.83
2018-12-30T10:17:30.344Z,17.90
2018-12-30T10:19:58.721Z,23.10
2018-12-30T10:22:27.325Z,24.13
2018-12-30T10:24:55.796Z,21.77
2018-12-30T10:27:24.131Z,21.67
2018-12-30T10:29:52.513Z,25.47
2018-12-30T10:32:20.942Z,21.73
2018-12-30T10:34:51.854Z,21.73
2018-12-30T10:37:20.276Z,22.53
2018-12-30T10:39:48.823Z,21.87
2018-12-30T10:42:17.290Z,23.93
2018-12-30T10:44:45.757Z,23.03
2018-12-30T10:47:14.212Z,26.73
2018-12-30T10:49:42.671Z,21.50
2018-12-30T10:52:12.758Z,20.67
2018-12-30T10:54:41.208Z,22.40
2018-12-30T10:57:09.648Z,25.83
2018-12-30T10:59:37.931Z,28.97
2018-12-30T11:02:06.269Z,18.53
2018-12-30T11:04:34.538Z,17.90
2018-12-30T11:07:02.792Z,15.00
2018-12-30T11:09:31.227Z,18.30
2018-12-30T11:11:59.535Z,22.83
2018-12-30T11:14:27.930Z,22.27
2018-12-30T11:16:56.323Z,19.00
2018-12-30T11:19:24.624Z,23.13
2018-12-30T11:21:52.977Z,19.30
2018-12-30T11:24:21.335Z,21.80
2018-12-30T11:26:49.658Z,24.17
2018-12-30T11:29:18.053Z,20.73
2018-12-30T11:31:46.409Z,21.17
2018-12-30T11:34:14.903Z,23.30
2018-12-30T11:36:43.417Z,23.50
2018-12-30T11:39:11.735Z,17.73
2018-12-30T11:41:40.179Z,20.27
2018-12-30T11:44:08.595Z,21.30
2018-12-30T11:46:36.874Z,20.20
2018-12-30T11:49:05.292Z,19.37
2018-12-30T11:51:33.614Z,22.57
2018-12-30T11:54:01.961Z,21.33
2018-12-30T11:56:30.339Z,21.57
2018-12-30T11:58:58.646Z,16.67
2018-12-30T12:01:27.148Z,18.77
2018-12-30T12:03:55.524Z,17.90
2018-12-30T12:06:23.859Z,25.30
2018-12-30T12:08:52.228Z,23.10
2018-12-30T12:11:20.695Z,18.33
2018-12-30T12:13:49.039Z,20.00
2018-12-30T12:16:17.392Z,18.67
2018-12-30T12:18:45.785Z,20.13
2018-12-30T12:21:14.244Z,21.23
2018-12-30T12:23:44.853Z,27.90
2018-12-30T12:26:13.130Z,26.67
2018-12-30T12:28:41.579Z,18.27
2018-12-30T12:31:09.842Z,18.73
2018-12-30T12:33:38.220Z,23.30
2018-12-30T12:36:06.583Z,23.60
2018-12-30T12:38:34.918Z,17.33
2018-12-30T12:41:03.332Z,20.70
2018-12-30T12:43:33.955Z,19.63
2018-12-30T12:46:02.411Z,19.37
2018-12-30T12:48:32.361Z,19.30
2018-12-30T12:51:00.807Z,21.63
2018-12-30T12:53:29.094Z,17.90
2018-12-30T12:55:57.495Z,16.40
2018-12-30T12:58:25.839Z,23.53
2018-12-30T13:00:56.269Z,20.77
2018-12-30T13:03:24.739Z,16.67
2018-12-30T13:05:53.224Z,20.97
2018-12-30T13:08:21.574Z,21.43
2018-12-30T13:10:49.982Z,17.47
2018-12-30T13:13:18.462Z,14.93
2018-12-30T13:15:46.790Z,19.70
2018-12-30T13:18:15.203Z,18.17
2018-12-30T13:20:54.829Z,16.90
2018-12-30T13:23:23.348Z,20.70
2018-12-30T13:25:51.641Z,22.53
2018-12-30T13:28:20.097Z,16.47
2018-12-30T13:30:48.596Z,17.87
2018-12-30T13:33:17.121Z,21.63
2018-12-30T13:35:47.359Z,18.63
2018-12-30T13:38:15.687Z,22.20
2018-12-30T13:40:44.451Z,24.67
2018-12-30T13:43:12.818Z,22.47
2018-12-30T13:45:41.166Z,27.67
2018-12-30T13:48:12.279Z,25.13
2018-12-30T13:50:40.729Z,25.63
2018-12-30T13:53:09.153Z,25.70
2018-12-30T13:55:37.538Z,27.77
2018-12-30T13:58:06.933Z,21.33
2018-12-30T14:00:37.419Z,26.53
2018-12-30T14:03:05.816Z,28.10
2018-12-30T14:05:34.273Z,26.50
2018-12-30T14:08:02.748Z,27.77
2018-12-30T14:10:32.017Z,27.27
2018-12-30T14:13:00.429Z,33.13
2018-12-30T14:15:28.764Z,23.00
2018-12-30T14:17:58.745Z,28.00
2018-12-30T14:20:27.087Z,25.73
2018-12-30T14:22:58.287Z,31.47
2018-12-30T14:25:26.779Z,27.27
2018-12-30T14:27:55.120Z,28.07
2018-12-30T14:30:23.473Z,25.20
2018-12-30T14:32:51.795Z,23.77
2018-12-30T14:35:20.228Z,27.40
2018-12-30T14:37:48.605Z,19.57
2018-12-30T14:40:16.919Z,20.90
2018-12-30T14:42:45.188Z,22.20
2018-12-30T14:45:13.647Z,35.30
2018-12-30T14:47:41.954Z,30.97
2018-12-30T14:50:11.180Z,48.53
2018-12-30T14:52:39.549Z,44.10
2018-12-30T14:55:07.907Z,47.67
2018-12-30T14:57:36.296Z,54.07
2018-12-30T15:00:06.221Z,47.77
2018-12-30T15:02:34.505Z,33.83
2018-12-30T15:05:02.803Z,29.83
2018-12-30T15:07:31.220Z,26.97
2018-12-30T15:09:59.494Z,28.50
2018-12-30T15:12:27.785Z,24.67
2018-12-30T15:14:56.108Z,23.57
2018-12-30T15:17:24.384Z,26.97
2018-12-30T15:19:52.735Z,28.77
2018-12-30T15:22:21.024Z,23.23
2018-12-30T15:24:49.421Z,24.17
2018-12-30T15:27:17.690Z,28.53
2018-12-30T15:29:46.071Z,34.10
2018-12-30T15:32:14.458Z,26.60
2018-12-30T15:34:42.723Z,30.93
2018-12-30T15:37:11.088Z,31.70
2018-12-30T15:39:39.363Z,30.17
2018-12-30T15:42:07.668Z,28.37
2018-12-30T15:44:35.967Z,21.63
2018-12-30T15:47:04.262Z,26.67
2018-12-30T15:49:32.549Z,20.40
2018-12-30T15:52:00.836Z,40.10
2018-12-30T15:54:29.216Z,22.63
2018-12-30T15:56:57.553Z,31.30
2018-12-30T15:59:25.872Z,25.50
2018-12-30T16:01:54.242Z,27.50
2018-12-30T16:04:22.604Z,34.03
2018-12-30T16:06:50.895Z,56.07
2018-12-30T16:09:19.364Z,39.63
2018-12-30T16:11:47.719Z,51.90
2018-12-30T16:14:15.971Z,31.90
2018-12-30T16:16:44.318Z,28.20
2018-12-30T16:19:12.589Z,33.57
2018-12-30T16:21:40.985Z,27.93
2018-12-30T16:24:09.271Z,29.50
2018-12-30T16:26:37.567Z,31.90
2018-12-30T16:29:05.936Z,32.13
2018-12-30T16:31:34.314Z,31.00
2018-12-30T16:34:02.631Z,34.53
2018-12-30T16:36:32.641Z,25.70
2018-12-30T16:39:00.971Z,26.63
2018-12-30T16:41:29.267Z,34.77
2018-12-30T16:43:57.619Z,29.87
2018-12-30T16:46:26.001Z,29.80
2018-12-30T16:48:54.359Z,26.20
2018-12-30T16:51:22.768Z,40.17
2018-12-30T16:53:51.209Z,35.03
2018-12-30T16:56:19.584Z,35.67
2018-12-30T16:58:47.971Z,25.83
2018-12-30T17:01:16.263Z,25.27
2018-12-30T17:03:44.539Z,26.80
2018-12-30T17:06:14.455Z,26.97
2018-12-30T17:08:42.870Z,32.70
2018-12-30T17:11:11.179Z,34.97
2018-12-30T17:13:39.448Z,30.23
2018-12-30T17:16:07.696Z,31.40
2018-12-30T17:18:36.005Z,29.43
2018-12-30T17:21:04.384Z,31.33
2018-12-30T17:23:32.631Z,33.33
2018-12-30T17:26:01.012Z,35.43
2018-12-30T17:28:29.419Z,26.53
2018-12-30T17:30:57.779Z,31.83
2018-12-30T17:33:26.077Z,20.83
2018-12-30T17:35:54.356Z,30.87
2018-12-30T17:38:23.619Z,24.53
2018-12-30T17:40:52.107Z,22.93
2018-12-30T17:43:20.420Z,23.27
2018-12-30T17:45:48.760Z,29.93
2018-12-30T17:48:17.123Z,28.93
2018-12-30T17:50:45.474Z,27.77
2018-12-30T17:53:13.794Z,31.77
2018-12-30T17:55:42.075Z,22.90
2018-12-30T17:58:10.522Z,30.67
2018-12-30T18:00:38.796Z,32.03
2018-12-30T18:03:07.087Z,31.27
2018-12-30T18:05:35.389Z,53.97
2018-12-30T18:08:03.794Z,50.77
2018-12-30T18:10:32.070Z,32.87
2018-12-30T18:13:00.473Z,29.27
2018-12-30T18:15:28.952Z,33.77
2018-12-30T18:17:57.213Z,28.00
2018-12-30T18:20:25.574Z,29.07
2018-12-30T18:22:53.983Z,30.07
2018-12-30T18:25:22.320Z,29.03
2018-12-30T18:27:50.629Z,28.20
2018-12-30T18:30:18.940Z,31.73
2018-12-30T18:32:47.225Z,28.87
2018-12-30T18:35:15.543Z,33.83
2018-12-30T18:37:43.878Z,55.87
2018-12-30T18:40:12.264Z,49.17
2018-12-30T18:42:40.665Z,54.20
2018-12-30T18:45:08.945Z,51.23
2018-12-30T18:47:37.266Z,57.77
2018-12-30T18:50:07.863Z,38.87
2018-12-30T18:52:36.390Z,46.17
2018-12-30T18:55:05.121Z,37.70
2018-12-30T18:57:33.486Z,37.47
2018-12-30T19:00:01.935Z,31.70
2018-12-30T19:02:30.261Z,33.70
2018-12-30T19:04:58.514Z,38.13
2018-12-30T19:07:26.882Z,28.30
2018-12-30T19:09:55.148Z,27.83
2018-12-30T19:12:23.580Z,40.30
2018-12-30T19:14:52.052Z,44.43
2018-12-30T19:17:20.305Z,36.20
2018-12-30T19:19:48.680Z,29.17
2018-12-30T19:22:16.961Z,30.33
2018-12-30T19:24:45.262Z,32.40
2018-12-30T19:27:13.719Z,29.00
2018-12-30T19:29:42.215Z,26.53
2018-12-30T19:32:10.760Z,33.93
2018-12-30T19:34:40.730Z,27.13
2018-12-30T19:37:10.724Z,32.90
2018-12-30T19:39:51.244Z,30.97
2018-12-30T19:42:19.768Z,36.97
2018-12-30T19:44:49.050Z,30.30
2018-12-30T19:47:17.933Z,26.73
2018-12-30T19:49:46.316Z,32.07
2018-12-30T19:52:14.851Z,34.40
2018-12-30T19:54:43.260Z,29.57
2018-12-30T19:57:13.290Z,31.33
2018-12-30T19:59:41.664Z,30.33
2018-12-30T20:02:09.997Z,30.50
2018-12-30T20:04:40.720Z,24.97
2018-12-30T20:07:11.077Z,31.47
2018-12-30T20:09:41.669Z,25.13
2018-12-30T20:12:11.634Z,34.27
2018-12-30T20:14:43.369Z,30.13
2018-12-30T20:17:11.768Z,26.13
2018-12-30T20:19:42.960Z,29.27
2018-12-30T20:22:11.517Z,25.40
2018-12-30T20:24:39.837Z,29.40
2018-12-30T20:27:08.363Z,26.90
2018-12-30T20:29:36.643Z,23.10
2018-12-30T20:32:04.928Z,29.13
2018-12-30T20:34:33.206Z,29.17
2018-12-30T20:37:01.447Z,32.00
2018-12-30T20:39:30.598Z,31.47
2018-12-30T20:41:58.922Z,31.07
2018-12-30T20:44:27.160Z,26.30
2018-12-30T20:46:55.511Z,31.10
2018-12-30T20:49:23.747Z,37.27
2018-12-30T20:51:52.000Z,27.73
2018-12-30T20:54:20.297Z,32.10
2018-12-30T20:56:50.216Z,27.70
2018-12-30T20:59:20.622Z,32.70
2018-12-30T21:01:51.087Z,31.20
2018-12-30T21:04:31.764Z,32.13
2018-12-30T21:07:03.125Z,36.00
2018-12-30T21:09:31.581Z,28.33
2018-12-30T21:12:01.732Z,28.00
2018-12-30T21:14:30.069Z,29.50
2018-12-30T21:16:58.435Z,30.80
2018-12-30T21:19:29.448Z,23.90
2018-12-30T21:21:57.868Z,28.83
2018-12-30T21:24:27.289Z,33.93
2018-12-30T21:26:55.531Z,28.33
2018-12-30T21:29:23.958Z,27.30
2018-12-30T21:31:53.764Z,32.87
2018-12-30T21:34:22.018Z,28.07
2018-12-30T21:36:50.367Z,28.80
2018-12-30T21:39:18.608Z,32.20
2018-12-30T21:41:46.901Z,29.63
2018-12-30T21:44:15.149Z,30.30
2018-12-30T21:46:43.431Z,27.03
2018-12-30T21:49:11.740Z,24.20
2018-12-30T21:51:40.071Z,28.83
2018-12-30T21:54:08.414Z,23.80
2018-12-30T21:56:36.645Z,28.83
2018-12-30T21:59:04.933Z,28.17
2018-12-30T22:01:34.600Z,31.37
2018-12-30T22:04:02.953Z,27.30
2018-12-30T22:06:31.352Z,22.80
2018-12-30T22:08:59.724Z,27.93
2018-12-30T22:11:28.386Z,26.00
2018-12-30T22:13:56.765Z,25.93
2018-12-30T22:16:25.004Z,28.67
2018-12-30T22:18:53.346Z,27.00
2018-12-30T22:21:21.693Z,27.20
2018-12-30T22:23:49.989Z,25.67
2018-12-30T22:26:18.359Z,29.43
2018-12-30T22:28:46.644Z,22.30
2018-12-30T22:31:15.101Z,21.73
2018-12-30T22:33:43.401Z,25.57
2018-12-30T22:36:11.714Z,23.30
2018-12-30T22:38:40.075Z,23.97
2018-12-30T22:41:08.495Z,25.97
2018-12-30T22:43:36.763Z,30.17
2018-12-30T22:46:05.038Z,31.17
2018-12-30T22:48:33.321Z,24.27
2018-12-30T22:51:01.675Z,24.53
2018-12-30T22:53:30.085Z,22.80
2018-12-30T22:55:58.322Z,23.63
2018-12-30T22:58:26.634Z,25.50
2018-12-30T23:01:02.167Z,23.60
2018-12-30T23:03:30.474Z,23.40
2018-12-30T23:05:58.806Z,24.33
2018-12-30T23:08:27.118Z,23.23
2018-12-30T23:10:55.384Z,22.97
2018-12-30T23:13:23.674Z,25.37
2018-12-30T23:15:51.929Z,23.40
2018-12-30T23:18:20.226Z,23.93
2018-12-30T23:20:48.490Z,23.47
2018-12-30T23:23:16.721Z,25.83
2018-12-30T23:25:45.934Z,16.23
2018-12-30T23:28:14.282Z,21.20
2018-12-30T23:30:42.536Z,20.60
2018-12-30T23:33:10.805Z,20.63
2018-12-30T23:35:39.066Z,22.73
2018-12-30T23:38:07.425Z,22.87
2018-12-30T23:40:35.697Z,24.53
2018-12-30T23:43:04.046Z,23.20
2018-12-30T23:45:32.292Z,21.37
2018-12-30T23:48:06.821Z,20.77
2018-12-30T23:50:35.255Z,19.53
2018-12-30T23:53:03.514Z,19.90
2018-12-30T23:55:31.787Z,22.37
2018-12-30T23:58:00.096Z,22.03
